sensor_id;sensor_type;location;lat;lon;timestamp;P1;P2;P0
56495;PMS5003;42804;55.762;38.084;2022-12-01T00:01:11;54.20;43.20;29.60
56495;PMS5003;42804;55.762;38.084;2022-12-01T00:03:40;47.80;34.60;21.40
56495;PMS5003;42804;55.762;38.084;2022-12-01T00:06:09;63.80;47.80;30.00
56495;PMS5003;42804;55.762;38.084;2022-12-01T00:08:38;18.60;11.20;0.00
56495;PMS5003;42804;55.762;38.084;2022-12-01T00:11:06;61.60;48.00;30.00
56495;PMS5003;42804;55.762;38.084;2022-12-01T00:13:34;55.40;48.00;29.60
56495;PMS5003;42804;55.762;38.084;2022-12-01T00:16:10;59.60;42.80;26.40
56495;PMS5003;42804;55.762;38.084;2022-12-01T00:18:39;37.20;25.40;12.60
56495;PMS5003;42804;55.762;38.084;2022-12-01T00:21:12;53.40;43.60;26.00
56495;PMS5003;42804;55.762;38.084;2022-12-01T00:23:41;36.40;31.20;15.60
56495;PMS5003;42804;55.762;38.084;2022-12-01T00:26:09;41.20;37.20;24.80
56495;PMS5003;42804;55.762;38.084;2022-12-01T00:28:38;55.40;40.40;22.60
56495;PMS5003;42804;55.762;38.084;2022-12-01T00:31:06;54.60;45.80;30.00
56495;PMS5003;42804;55.762;38.084;2022-12-01T00:33:36;55.20;43.40;25.80
56495;PMS5003;42804;55.762;38.084;2022-12-01T00:36:04;51.20;43.80;27.40
56495;PMS5003;42804;55.762;38.084;2022-12-01T00:38:33;56.40;42.60;25.00
56495;PMS5003;42804;55.762;38.084;2022-12-01T00:41:01;58.80;47.20;27.80
56495;PMS5003;42804;55.762;38.084;2022-12-01T00:43:30;56.20;48.60;28.40
56495;PMS5003;42804;55.762;38.084;2022-12-01T00:45:58;36.00;24.80;9.20
56495;PMS5003;42804;55.762;38.084;2022-12-01T00:48:26;42.40;38.60;23.20
56495;PMS5003;42804;55.762;38.084;2022-12-01T00:50:56;63.20;47.20;28.40
56495;PMS5003;42804;55.762;38.084;2022-12-01T00:53:24;45.40;40.00;22.00
56495;PMS5003;42804;55.762;38.084;2022-12-01T00:55:52;52.00;42.20;26.00
56495;PMS5003;42804;55.762;38.084;2022-12-01T00:58:21;36.80;29.80;20.20
56495;PMS5003;42804;55.762;38.084;2022-12-01T01:00:55;48.80;36.40;25.80
56495;PMS5003;42804;55.762;38.084;2022-12-01T01:03:24;41.60;36.40;20.20
56495;PMS5003;42804;55.762;38.084;2022-12-01T01:05:52;33.80;28.80;19.80
56495;PMS5003;42804;55.762;38.084;2022-12-01T01:08:21;39.20;35.00;21.60
56495;PMS5003;42804;55.762;38.084;2022-12-01T01:10:50;42.40;37.60;23.60
56495;PMS5003;42804;55.762;38.084;2022-12-01T01:13:18;41.00;35.80;19.60
56495;PMS5003;42804;55.762;38.084;2022-12-01T01:15:55;39.40;30.20;16.80
56495;PMS5003;42804;55.762;38.084;2022-12-01T01:18:24;54.60;45.80;26.60
56495;PMS5003;42804;55.762;38.084;2022-12-01T01:20:55;35.00;28.20;12.00
56495;PMS5003;42804;55.762;38.084;2022-12-01T01:23:25;52.80;40.60;22.40
56495;PMS5003;42804;55.762;38.084;2022-12-01T01:25:59;57.40;44.60;27.60
56495;PMS5003;42804;55.762;38.084;2022-12-01T01:28:27;58.60;45.40;27.40
56495;PMS5003;42804;55.762;38.084;2022-12-01T01:30:56;56.40;46.00;26.20
56495;PMS5003;42804;55.762;38.084;2022-12-01T01:33:24;47.60;32.80;20.60
56495;PMS5003;42804;55.762;38.084;2022-12-01T01:35:52;39.00;30.00;14.00
56495;PMS5003;42804;55.762;38.084;2022-12-01T01:38:21;46.00;34.80;21.40
56495;PMS5003;42804;55.762;38.084;2022-12-01T01:40:50;43.60;36.20;24.40
56495;PMS5003;42804;55.762;38.084;2022-12-01T01:46:01;50.80;33.40;16.80
56495;PMS5003;42804;55.762;38.084;2022-12-01T01:48:29;31.60;25.20;12.40
56495;PMS5003;42804;55.762;38.084;2022-12-01T01:50:57;40.40;34.40;21.80
56495;PMS5003;42804;55.762;38.084;2022-12-01T01:53:26;46.40;35.60;23.00
56495;PMS5003;42804;55.762;38.084;2022-12-01T01:55:55;39.80;29.60;15.60
56495;PMS5003;42804;55.762;38.084;2022-12-01T01:58:24;42.60;35.20;21.60
56495;PMS5003;42804;55.762;38.084;2022-12-01T02:00:53;36.80;28.60;21.80
56495;PMS5003;42804;55.762;38.084;2022-12-01T02:03:21;49.00;40.00;24.00
56495;PMS5003;42804;55.762;38.084;2022-12-01T02:05:49;48.20;40.00;21.40
56495;PMS5003;42804;55.762;38.084;2022-12-01T02:08:17;50.60;35.40;22.60
56495;PMS5003;42804;55.762;38.084;2022-12-01T02:10:49;43.60;35.20;21.60
56495;PMS5003;42804;55.762;38.084;2022-12-01T02:13:22;33.80;33.20;27.20
56495;PMS5003;42804;55.762;38.084;2022-12-01T02:15:55;38.20;28.40;20.60
56495;PMS5003;42804;55.762;38.084;2022-12-01T02:18:27;48.20;39.20;23.20
56495;PMS5003;42804;55.762;38.084;2022-12-01T02:24:09;30.80;22.20;7.80
56495;PMS5003;42804;55.762;38.084;2022-12-01T02:26:48;37.00;32.40;16.80
56495;PMS5003;42804;55.762;38.084;2022-12-01T02:29:33;35.80;31.00;18.20
56495;PMS5003;42804;55.762;38.084;2022-12-01T02:32:09;46.00;36.00;24.60
56495;PMS5003;42804;55.762;38.084;2022-12-01T02:34:40;43.40;37.00;21.20
56495;PMS5003;42804;55.762;38.084;2022-12-01T02:37:13;38.00;31.80;21.40
56495;PMS5003;42804;55.762;38.084;2022-12-01T02:39:46;39.20;33.00;19.80
56495;PMS5003;42804;55.762;38.084;2022-12-01T02:42:20;40.40;29.00;15.60
56495;PMS5003;42804;55.762;38.084;2022-12-01T02:45:08;34.40;28.40;18.20
56495;PMS5003;42804;55.762;38.084;2022-12-01T02:47:38;23.60;20.60;11.20
56495;PMS5003;42804;55.762;38.084;2022-12-01T02:50:08;23.80;15.60;14.60
56495;PMS5003;42804;55.762;38.084;2022-12-01T02:52:37;54.80;45.00;27.00
56495;PMS5003;42804;55.762;38.084;2022-12-01T02:55:07;48.00;35.20;20.20
56495;PMS5003;42804;55.762;38.084;2022-12-01T02:57:35;30.20;27.80;16.40
56495;PMS5003;42804;55.762;38.084;2022-12-01T03:00:04;53.40;44.60;27.00
56495;PMS5003;42804;55.762;38.084;2022-12-01T03:02:33;49.60;42.20;25.40
56495;PMS5003;42804;55.762;38.084;2022-12-01T03:05:09;45.20;37.60;24.20
56495;PMS5003;42804;55.762;38.084;2022-12-01T03:07:49;37.60;30.80;21.40
56495;PMS5003;42804;55.762;38.084;2022-12-01T03:10:21;31.40;28.20;16.00
56495;PMS5003;42804;55.762;38.084;2022-12-01T03:12:58;39.00;35.60;21.60
56495;PMS5003;42804;55.762;38.084;2022-12-01T03:15:30;50.20;37.40;21.20
56495;PMS5003;42804;55.762;38.084;2022-12-01T03:18:04;31.40;27.80;20.40
56495;PMS5003;42804;55.762;38.084;2022-12-01T03:20:36;29.00;26.60;17.60
56495;PMS5003;42804;55.762;38.084;2022-12-01T03:23:06;25.60;21.40;8.20
56495;PMS5003;42804;55.762;38.084;2022-12-01T03:25:36;42.60;33.80;21.00
56495;PMS5003;42804;55.762;38.084;2022-12-01T03:28:04;41.40;36.20;22.40
56495;PMS5003;42804;55.762;38.084;2022-12-01T03:30:51;29.00;20.60;5.60
56495;PMS5003;42804;55.762;38.084;2022-12-01T03:33:23;40.80;33.40;20.60
56495;PMS5003;42804;55.762;38.084;2022-12-01T03:35:54;42.40;34.80;23.40
56495;PMS5003;42804;55.762;38.084;2022-12-01T03:38:25;32.60;20.40;12.40
56495;PMS5003;42804;55.762;38.084;2022-12-01T03:40:54;36.60;30.60;19.00
56495;PMS5003;42804;55.762;38.084;2022-12-01T03:43:25;32.40;21.00;12.00
56495;PMS5003;42804;55.762;38.084;2022-12-01T03:45:55;30.00;21.40;11.60
56495;PMS5003;42804;55.762;38.084;2022-12-01T03:48:26;40.20;32.00;21.60
56495;PMS5003;42804;55.762;38.084;2022-12-01T03:50:58;43.40;32.60;19.60
56495;PMS5003;42804;55.762;38.084;2022-12-01T03:53:31;39.20;33.60;22.00
56495;PMS5003;42804;55.762;38.084;2022-12-01T03:56:01;28.20;22.00;14.80
56495;PMS5003;42804;55.762;38.084;2022-12-01T03:58:30;35.40;30.20;20.60
56495;PMS5003;42804;55.762;38.084;2022-12-01T04:01:00;27.00;19.60;12.80
56495;PMS5003;42804;55.762;38.084;2022-12-01T04:03:29;40.60;25.80;16.60
56495;PMS5003;42804;55.762;38.084;2022-12-01T04:05:59;38.00;30.80;17.40
56495;PMS5003;42804;55.762;38.084;2022-12-01T04:08:27;44.40;35.40;19.80
56495;PMS5003;42804;55.762;38.084;2022-12-01T04:10:56;23.80;19.00;12.40
56495;PMS5003;42804;55.762;38.084;2022-12-01T04:13:25;33.40;27.40;16.00
56495;PMS5003;42804;55.762;38.084;2022-12-01T04:15:52;35.00;27.60;19.00
56495;PMS5003;42804;55.762;38.084;2022-12-01T04:18:21;31.80;23.80;15.20
56495;PMS5003;42804;55.762;38.084;2022-12-01T04:20:49;35.20;28.80;18.00
56495;PMS5003;42804;55.762;38.084;2022-12-01T04:23:19;33.40;26.20;14.80
56495;PMS5003;42804;55.762;38.084;2022-12-01T04:26:02;21.20;18.20;12.20
56495;PMS5003;42804;55.762;38.084;2022-12-01T04:28:30;40.60;35.40;21.80
56495;PMS5003;42804;55.762;38.084;2022-12-01T04:30:58;41.20;33.40;22.60
56495;PMS5003;42804;55.762;38.084;2022-12-01T04:33:27;39.80;30.80;19.00
56495;PMS5003;42804;55.762;38.084;2022-12-01T04:35:56;34.60;29.80;18.00
56495;PMS5003;42804;55.762;38.084;2022-12-01T04:38:26;27.60;24.60;12.00
56495;PMS5003;42804;55.762;38.084;2022-12-01T04:40:56;36.00;30.00;19.00
56495;PMS5003;42804;55.762;38.084;2022-12-01T04:43:24;31.80;28.40;19.60
56495;PMS5003;42804;55.762;38.084;2022-12-01T04:45:52;33.20;29.60;19.20
56495;PMS5003;42804;55.762;38.084;2022-12-01T04:48:21;37.80;34.80;21.00
56495;PMS5003;42804;55.762;38.084;2022-12-01T04:50:49;43.60;27.80;14.60
56495;PMS5003;42804;55.762;38.084;2022-12-01T04:53:17;32.40;25.40;15.40
56495;PMS5003;42804;55.762;38.084;2022-12-01T04:55:46;42.20;36.20;21.00
56495;PMS5003;42804;55.762;38.084;2022-12-01T04:58:14;44.40;39.00;24.80
56495;PMS5003;42804;55.762;38.084;2022-12-01T05:00:43;40.20;35.80;21.00
56495;PMS5003;42804;55.762;38.084;2022-12-01T05:03:11;16.60;14.60;8.20
56495;PMS5003;42804;55.762;38.084;2022-12-01T05:05:41;28.20;23.20;10.40
56495;PMS5003;42804;55.762;38.084;2022-12-01T05:08:09;34.40;23.40;12.00
56495;PMS5003;42804;55.762;38.084;2022-12-01T05:10:37;33.00;29.00;15.40
56495;PMS5003;42804;55.762;38.084;2022-12-01T05:13:07;33.40;28.80;18.00
56495;PMS5003;42804;55.762;38.084;2022-12-01T05:15:35;40.40;35.00;17.20
56495;PMS5003;42804;55.762;38.084;2022-12-01T05:18:03;32.00;26.80;14.80
56495;PMS5003;42804;55.762;38.084;2022-12-01T05:20:32;28.60;19.60;9.00
56495;PMS5003;42804;55.762;38.084;2022-12-01T05:23:18;44.40;37.00;21.60
56495;PMS5003;42804;55.762;38.084;2022-12-01T05:25:46;36.80;33.00;18.40
56495;PMS5003;42804;55.762;38.084;2022-12-01T05:28:15;40.80;33.80;19.00
56495;PMS5003;42804;55.762;38.084;2022-12-01T05:30:43;43.60;36.40;21.00
56495;PMS5003;42804;55.762;38.084;2022-12-01T05:33:12;41.60;36.00;23.60
56495;PMS5003;42804;55.762;38.084;2022-12-01T05:35:40;19.40;9.20;0.60
56495;PMS5003;42804;55.762;38.084;2022-12-01T05:38:08;25.60;21.60;15.00
56495;PMS5003;42804;55.762;38.084;2022-12-01T05:40:36;28.80;23.60;13.20
56495;PMS5003;42804;55.762;38.084;2022-12-01T05:43:05;44.60;33.20;19.20
56495;PMS5003;42804;55.762;38.084;2022-12-01T05:45:35;30.80;24.60;11.60
56495;PMS5003;42804;55.762;38.084;2022-12-01T05:48:03;32.80;28.60;20.60
56495;PMS5003;42804;55.762;38.084;2022-12-01T05:50:31;41.40;34.80;22.40
56495;PMS5003;42804;55.762;38.084;2022-12-01T05:52:59;33.00;28.40;16.80
56495;PMS5003;42804;55.762;38.084;2022-12-01T05:55:27;31.00;21.40;10.80
56495;PMS5003;42804;55.762;38.084;2022-12-01T05:57:56;39.20;28.00;13.40
56495;PMS5003;42804;55.762;38.084;2022-12-01T06:00:24;43.60;35.60;22.40
56495;PMS5003;42804;55.762;38.084;2022-12-01T06:02:54;30.20;24.60;12.80
56495;PMS5003;42804;55.762;38.084;2022-12-01T06:05:22;41.20;33.60;20.00
56495;PMS5003;42804;55.762;38.084;2022-12-01T06:07:50;39.20;34.20;21.60
56495;PMS5003;42804;55.762;38.084;2022-12-01T06:10:18;38.00;31.60;18.60
56495;PMS5003;42804;55.762;38.084;2022-12-01T06:12:46;28.20;26.60;16.20
56495;PMS5003;42804;55.762;38.084;2022-12-01T06:15:14;26.40;20.60;12.20
56495;PMS5003;42804;55.762;38.084;2022-12-01T06:17:42;24.20;16.80;10.00
56495;PMS5003;42804;55.762;38.084;2022-12-01T06:20:12;22.80;21.40;16.60
56495;PMS5003;42804;55.762;38.084;2022-12-01T06:22:40;43.00;36.80;21.40
56495;PMS5003;42804;55.762;38.084;2022-12-01T06:25:08;49.60;36.80;22.80
56495;PMS5003;42804;55.762;38.084;2022-12-01T06:27:37;48.20;37.60;22.00
56495;PMS5003;42804;55.762;38.084;2022-12-01T06:30:05;43.40;39.80;22.80
56495;PMS5003;42804;55.762;38.084;2022-12-01T06:32:34;35.20;30.60;15.40
56495;PMS5003;42804;55.762;38.084;2022-12-01T06:35:02;39.60;33.40;20.60
56495;PMS5003;42804;55.762;38.084;2022-12-01T06:37:32;48.60;37.40;21.20
56495;PMS5003;42804;55.762;38.084;2022-12-01T06:40:00;32.60;24.00;16.20
56495;PMS5003;42804;55.762;38.084;2022-12-01T06:42:28;26.60;16.80;3.40
56495;PMS5003;42804;55.762;38.084;2022-12-01T06:44:58;40.60;32.40;19.00
56495;PMS5003;42804;55.762;38.084;2022-12-01T06:47:26;52.20;40.00;27.80
56495;PMS5003;42804;55.762;38.084;2022-12-01T06:49:54;53.40;42.20;27.00
56495;PMS5003;42804;55.762;38.084;2022-12-01T06:52:22;52.40;43.60;25.60
56495;PMS5003;42804;55.762;38.084;2022-12-01T06:54:51;59.80;43.00;26.00
56495;PMS5003;42804;55.762;38.084;2022-12-01T06:57:20;66.40;52.80;32.20
56495;PMS5003;42804;55.762;38.084;2022-12-01T06:59:48;64.40;48.20;29.60
56495;PMS5003;42804;55.762;38.084;2022-12-01T07:02:17;65.60;49.60;29.60
56495;PMS5003;42804;55.762;38.084;2022-12-01T07:04:45;72.20;56.20;36.00
56495;PMS5003;42804;55.762;38.084;2022-12-01T07:07:13;59.60;49.80;30.80
56495;PMS5003;42804;55.762;38.084;2022-12-01T07:09:42;59.80;45.60;25.00
56495;PMS5003;42804;55.762;38.084;2022-12-01T07:12:11;43.80;33.80;20.60
56495;PMS5003;42804;55.762;38.084;2022-12-01T07:14:39;69.00;48.40;30.20
56495;PMS5003;42804;55.762;38.084;2022-12-01T07:17:08;64.40;49.40;31.40
56495;PMS5003;42804;55.762;38.084;2022-12-01T07:19:36;58.20;41.80;21.40
56495;PMS5003;42804;55.762;38.084;2022-12-01T07:22:04;70.00;49.40;28.60
56495;PMS5003;42804;55.762;38.084;2022-12-01T07:24:32;69.20;48.60;30.00
56495;PMS5003;42804;55.762;38.084;2022-12-01T07:27:01;53.80;46.00;29.80
56495;PMS5003;42804;55.762;38.084;2022-12-01T07:29:31;48.20;46.40;31.60
56495;PMS5003;42804;55.762;38.084;2022-12-01T07:31:59;63.80;41.80;25.80
56495;PMS5003;42804;55.762;38.084;2022-12-01T07:34:27;59.20;45.60;25.00
56495;PMS5003;42804;55.762;38.084;2022-12-01T07:36:55;69.00;48.40;30.00
56495;PMS5003;42804;55.762;38.084;2022-12-01T07:39:24;69.80;51.40;30.40
56495;PMS5003;42804;55.762;38.084;2022-12-01T07:41:52;52.80;44.80;28.40
56495;PMS5003;42804;55.762;38.084;2022-12-01T07:44:20;35.20;27.60;12.60
56495;PMS5003;42804;55.762;38.084;2022-12-01T07:46:49;53.80;41.60;25.00
56495;PMS5003;42804;55.762;38.084;2022-12-01T07:49:17;65.00;45.20;28.20
56495;PMS5003;42804;55.762;38.084;2022-12-01T07:51:45;37.00;27.60;24.80
56495;PMS5003;42804;55.762;38.084;2022-12-01T07:54:13;57.80;40.20;25.60
56495;PMS5003;42804;55.762;38.084;2022-12-01T07:56:43;53.80;41.80;24.60
56495;PMS5003;42804;55.762;38.084;2022-12-01T07:59:13;64.60;50.20;33.00
56495;PMS5003;42804;55.762;38.084;2022-12-01T08:01:41;54.40;37.80;19.40
56495;PMS5003;42804;55.762;38.084;2022-12-01T08:04:12;66.80;48.40;29.60
56495;PMS5003;42804;55.762;38.084;2022-12-01T08:06:40;67.00;51.00;30.60
56495;PMS5003;42804;55.762;38.084;2022-12-01T08:09:08;50.80;45.00;28.80
56495;PMS5003;42804;55.762;38.084;2022-12-01T08:11:36;46.80;34.80;16.00
56495;PMS5003;42804;55.762;38.084;2022-12-01T08:14:04;47.40;41.00;25.60
56495;PMS5003;42804;55.762;38.084;2022-12-01T08:16:32;55.00;45.20;27.60
56495;PMS5003;42804;55.762;38.084;2022-12-01T08:19:01;54.60;42.00;25.00
56495;PMS5003;42804;55.762;38.084;2022-12-01T08:21:30;46.40;38.00;26.60
56495;PMS5003;42804;55.762;38.084;2022-12-01T08:23:58;57.40;44.00;25.80
56495;PMS5003;42804;55.762;38.084;2022-12-01T08:26:27;54.00;45.00;29.60
56495;PMS5003;42804;55.762;38.084;2022-12-01T08:28:56;52.00;43.60;26.20
56495;PMS5003;42804;55.762;38.084;2022-12-01T08:31:25;57.60;46.40;27.40
56495;PMS5003;42804;55.762;38.084;2022-12-01T08:33:54;54.80;44.60;27.60
56495;PMS5003;42804;55.762;38.084;2022-12-01T08:36:22;55.80;44.20;26.80
56495;PMS5003;42804;55.762;38.084;2022-12-01T08:38:53;57.60;45.00;28.00
56495;PMS5003;42804;55.762;38.084;2022-12-01T08:41:22;53.80;39.80;24.00
56495;PMS5003;42804;55.762;38.084;2022-12-01T08:43:50;53.60;42.60;29.20
56495;PMS5003;42804;55.762;38.084;2022-12-01T08:46:27;64.00;45.80;29.00
56495;PMS5003;42804;55.762;38.084;2022-12-01T08:48:59;47.60;42.80;25.00
56495;PMS5003;42804;55.762;38.084;2022-12-01T08:51:27;58.00;49.00;30.20
56495;PMS5003;42804;55.762;38.084;2022-12-01T08:53:57;59.20;45.60;25.80
56495;PMS5003;42804;55.762;38.084;2022-12-01T08:56:26;59.20;45.00;25.80
56495;PMS5003;42804;55.762;38.084;2022-12-01T08:58:54;44.00;31.00;17.20
56495;PMS5003;42804;55.762;38.084;2022-12-01T09:01:22;66.80;51.60;30.20
56495;PMS5003;42804;55.762;38.084;2022-12-01T09:03:52;59.80;44.20;21.80
56495;PMS5003;42804;55.762;38.084;2022-12-01T09:06:32;53.80;42.00;24.80
56495;PMS5003;42804;55.762;38.084;2022-12-01T09:09:03;52.00;45.20;26.40
56495;PMS5003;42804;55.762;38.084;2022-12-01T09:11:31;64.80;45.40;28.40
56495;PMS5003;42804;55.762;38.084;2022-12-01T09:13:59;70.80;49.40;26.60
56495;PMS5003;42804;55.762;38.084;2022-12-01T09:16:27;64.20;43.80;22.60
56495;PMS5003;42804;55.762;38.084;2022-12-01T09:18:56;76.00;56.80;35.20
56495;PMS5003;42804;55.762;38.084;2022-12-01T09:21:25;57.40;47.20;28.80
56495;PMS5003;42804;55.762;38.084;2022-12-01T09:23:53;74.40;55.00;34.00
56495;PMS5003;42804;55.762;38.084;2022-12-01T09:26:22;79.80;57.80;36.40
56495;PMS5003;42804;55.762;38.084;2022-12-01T09:28:51;79.80;60.60;37.00
56495;PMS5003;42804;55.762;38.084;2022-12-01T09:31:20;78.40;57.80;37.20
56495;PMS5003;42804;55.762;38.084;2022-12-01T09:33:52;80.60;57.80;37.00
56495;PMS5003;42804;55.762;38.084;2022-12-01T09:36:21;74.20;51.40;31.60
56495;PMS5003;42804;55.762;38.084;2022-12-01T09:38:49;78.60;57.00;36.60
56495;PMS5003;42804;55.762;38.084;2022-12-01T09:41:18;80.00;58.40;36.40
56495;PMS5003;42804;55.762;38.084;2022-12-01T09:43:49;73.60;54.80;33.00
56495;PMS5003;42804;55.762;38.084;2022-12-01T09:46:19;77.20;56.80;34.60
56495;PMS5003;42804;55.762;38.084;2022-12-01T09:48:49;72.80;49.40;32.00
56495;PMS5003;42804;55.762;38.084;2022-12-01T09:51:19;63.20;46.60;26.00
56495;PMS5003;42804;55.762;38.084;2022-12-01T09:53:48;55.20;48.00;31.80
56495;PMS5003;42804;55.762;38.084;2022-12-01T09:56:18;68.60;52.40;33.40
56495;PMS5003;42804;55.762;38.084;2022-12-01T09:58:49;63.20;48.00;33.20
56495;PMS5003;42804;55.762;38.084;2022-12-01T10:01:18;68.20;53.80;33.80
56495;PMS5003;42804;55.762;38.084;2022-12-01T10:03:53;67.80;48.60;21.80
56495;PMS5003;42804;55.762;38.084;2022-12-01T10:06:25;70.80;56.20;33.60
56495;PMS5003;42804;55.762;38.084;2022-12-01T10:08:59;65.40;52.40;33.40
56495;PMS5003;42804;55.762;38.084;2022-12-01T10:11:30;77.40;57.00;34.40
56495;PMS5003;42804;55.762;38.084;2022-12-01T10:14:00;78.00;55.40;33.20
56495;PMS5003;42804;55.762;38.084;2022-12-01T10:16:29;78.60;57.20;33.20
56495;PMS5003;42804;55.762;38.084;2022-12-01T10:19:00;77.00;59.40;37.20
56495;PMS5003;42804;55.762;38.084;2022-12-01T10:21:36;73.00;54.00;32.20
56495;PMS5003;42804;55.762;38.084;2022-12-01T10:24:14;41.40;31.20;12.20
56495;PMS5003;42804;55.762;38.084;2022-12-01T10:26:50;68.00;52.80;31.00
56495;PMS5003;42804;55.762;38.084;2022-12-01T10:29:23;75.40;53.60;32.60
56495;PMS5003;42804;55.762;38.084;2022-12-01T10:31:54;52.20;40.00;18.40
56495;PMS5003;42804;55.762;38.084;2022-12-01T10:34:24;66.60;51.80;30.40
56495;PMS5003;42804;55.762;38.084;2022-12-01T10:36:53;60.40;45.40;28.00
56495;PMS5003;42804;55.762;38.084;2022-12-01T10:39:23;55.00;43.60;23.60
56495;PMS5003;42804;55.762;38.084;2022-12-01T10:41:53;53.80;41.20;27.40
56495;PMS5003;42804;55.762;38.084;2022-12-01T10:44:25;38.00;22.80;4.40
56495;PMS5003;42804;55.762;38.084;2022-12-01T10:46:55;39.80;28.00;11.60
56495;PMS5003;42804;55.762;38.084;2022-12-01T10:49:33;48.80;40.80;25.80
56495;PMS5003;42804;55.762;38.084;2022-12-01T10:52:02;39.40;35.80;22.80
56495;PMS5003;42804;55.762;38.084;2022-12-01T10:54:31;53.20;39.80;24.80
56495;PMS5003;42804;55.762;38.084;2022-12-01T10:56:59;43.20;37.20;16.40
56495;PMS5003;42804;55.762;38.084;2022-12-01T10:59:31;59.00;48.40;30.00
56495;PMS5003;42804;55.762;38.084;2022-12-01T11:01:59;51.60;42.20;27.80
56495;PMS5003;42804;55.762;38.084;2022-12-01T11:04:33;52.60;45.40;28.60
56495;PMS5003;42804;55.762;38.084;2022-12-01T11:07:02;65.00;49.00;30.00
56495;PMS5003;42804;55.762;38.084;2022-12-01T11:09:30;64.60;49.80;30.20
56495;PMS5003;42804;55.762;38.084;2022-12-01T11:12:00;58.60;46.80;25.80
56495;PMS5003;42804;55.762;38.084;2022-12-01T11:14:32;64.00;47.60;30.00
56495;PMS5003;42804;55.762;38.084;2022-12-01T11:17:13;48.60;34.80;16.20
56495;PMS5003;42804;55.762;38.084;2022-12-01T11:19:42;65.20;50.60;33.00
56495;PMS5003;42804;55.762;38.084;2022-12-01T11:22:17;63.00;46.80;30.00
56495;PMS5003;42804;55.762;38.084;2022-12-01T11:24:55;51.80;41.00;24.00
56495;PMS5003;42804;55.762;38.084;2022-12-01T11:27:24;67.20;46.20;28.80
56495;PMS5003;42804;55.762;38.084;2022-12-01T11:29:55;68.60;53.60;31.60
56495;PMS5003;42804;55.762;38.084;2022-12-01T11:32:24;60.60;50.00;30.80
56495;PMS5003;42804;55.762;38.084;2022-12-01T11:34:54;59.60;46.80;29.00
56495;PMS5003;42804;55.762;38.084;2022-12-01T11:37:24;62.40;45.60;28.40
56495;PMS5003;42804;55.762;38.084;2022-12-01T11:39:54;54.60;39.60;19.00
56495;PMS5003;42804;55.762;38.084;2022-12-01T11:42:30;56.40;41.80;20.40
56495;PMS5003;42804;55.762;38.084;2022-12-01T11:45:02;72.00;52.20;31.60
56495;PMS5003;42804;55.762;38.084;2022-12-01T11:47:31;70.20;50.20;30.80
56495;PMS5003;42804;55.762;38.084;2022-12-01T11:50:00;68.60;48.80;29.60
56495;PMS5003;42804;55.762;38.084;2022-12-01T11:52:29;68.60;53.60;33.20
56495;PMS5003;42804;55.762;38.084;2022-12-01T11:54:59;53.80;44.60;30.00
56495;PMS5003;42804;55.762;38.084;2022-12-01T11:57:35;43.60;33.80;17.20
56495;PMS5003;42804;55.762;38.084;2022-12-01T12:00:10;70.40;51.40;33.80
56495;PMS5003;42804;55.762;38.084;2022-12-01T12:02:40;62.80;42.80;27.00
56495;PMS5003;42804;55.762;38.084;2022-12-01T12:07:58;56.60;49.20;30.80
56495;PMS5003;42804;55.762;38.084;2022-12-01T12:10:33;68.80;49.00;30.20
56495;PMS5003;42804;55.762;38.084;2022-12-01T12:13:11;64.80;47.00;27.40
56495;PMS5003;42804;55.762;38.084;2022-12-01T12:15:46;73.00;52.80;33.40
56495;PMS5003;42804;55.762;38.084;2022-12-01T12:18:25;62.00;48.00;27.00
56495;PMS5003;42804;55.762;38.084;2022-12-01T12:20:59;53.60;42.80;21.80
56495;PMS5003;42804;55.762;38.084;2022-12-01T12:23:41;69.60;55.80;35.20
56495;PMS5003;42804;55.762;38.084;2022-12-01T12:26:16;57.00;45.20;22.00
56495;PMS5003;42804;55.762;38.084;2022-12-01T12:28:55;70.80;51.60;30.00
56495;PMS5003;42804;55.762;38.084;2022-12-01T12:31:30;64.80;46.20;26.60
56495;PMS5003;42804;55.762;38.084;2022-12-01T12:36:51;60.20;48.40;31.00
56495;PMS5003;42804;55.762;38.084;2022-12-01T12:39:30;69.40;48.80;28.40
56495;PMS5003;42804;55.762;38.084;2022-12-01T12:42:03;66.60;52.60;32.00
56495;PMS5003;42804;55.762;38.084;2022-12-01T12:44:40;59.40;45.20;24.40
56495;PMS5003;42804;55.762;38.084;2022-12-01T12:47:15;60.40;47.60;29.20
56495;PMS5003;42804;55.762;38.084;2022-12-01T12:49:48;62.60;45.20;30.00
56495;PMS5003;42804;55.762;38.084;2022-12-01T12:52:18;55.20;44.20;22.00
56495;PMS5003;42804;55.762;38.084;2022-12-01T12:54:50;55.60;47.60;26.00
56495;PMS5003;42804;55.762;38.084;2022-12-01T12:57:23;66.80;46.40;28.00
56495;PMS5003;42804;55.762;38.084;2022-12-01T12:59:54;52.20;42.80;27.80
56495;PMS5003;42804;55.762;38.084;2022-12-01T13:02:27;50.20;34.00;21.60
56495;PMS5003;42804;55.762;38.084;2022-12-01T13:05:01;51.20;43.00;30.00
56495;PMS5003;42804;55.762;38.084;2022-12-01T13:07:33;58.60;44.20;27.40
56495;PMS5003;42804;55.762;38.084;2022-12-01T13:10:07;58.60;45.00;24.20
56495;PMS5003;42804;55.762;38.084;2022-12-01T13:12:38;55.20;42.60;26.60
56495;PMS5003;42804;55.762;38.084;2022-12-01T13:15:12;38.00;33.40;20.60
56495;PMS5003;42804;55.762;38.084;2022-12-01T13:17:43;55.40;44.20;28.00
56495;PMS5003;42804;55.762;38.084;2022-12-01T13:20:13;52.20;42.00;26.80
56495;PMS5003;42804;55.762;38.084;2022-12-01T13:22:43;57.40;45.40;25.20
56495;PMS5003;42804;55.762;38.084;2022-12-01T13:25:12;38.00;30.40;21.40
56495;PMS5003;42804;55.762;38.084;2022-12-01T13:27:41;63.40;45.00;27.00
56495;PMS5003;42804;55.762;38.084;2022-12-01T13:30:18;53.80;46.80;28.40
56495;PMS5003;42804;55.762;38.084;2022-12-01T13:32:48;47.00;41.60;24.00
56495;PMS5003;42804;55.762;38.084;2022-12-01T13:35:21;53.80;44.20;24.00
56495;PMS5003;42804;55.762;38.084;2022-12-01T13:37:52;54.60;38.00;15.20
56495;PMS5003;42804;55.762;38.084;2022-12-01T13:40:21;56.60;41.00;24.00
56495;PMS5003;42804;55.762;38.084;2022-12-01T13:42:55;60.40;49.00;30.20
56495;PMS5003;42804;55.762;38.084;2022-12-01T13:45:24;33.80;25.20;5.20
56495;PMS5003;42804;55.762;38.084;2022-12-01T13:47:57;47.80;44.20;28.40
56495;PMS5003;42804;55.762;38.084;2022-12-01T13:50:37;49.20;41.80;26.20
56495;PMS5003;42804;55.762;38.084;2022-12-01T13:53:09;55.40;42.80;25.00
56495;PMS5003;42804;55.762;38.084;2022-12-01T13:55:52;53.20;41.20;27.20
56495;PMS5003;42804;55.762;38.084;2022-12-01T13:58:22;58.40;43.60;29.60
56495;PMS5003;42804;55.762;38.084;2022-12-01T14:00:50;43.20;36.40;21.00
56495;PMS5003;42804;55.762;38.084;2022-12-01T14:06:26;53.80;45.80;30.00